John P. Brown — WDA9975 — position and weather

sailwx.info

Track history (hours):
 
Tides and Currents Weather Stations Pressure Air Temp Water Temp Dewpoint Dewpoint Depression Visibility Wind Speed Wind Dir Waves Ship Positions

John P. Brown

Owner: THOMAS J. BROWN & SONS INC., STATEN ISLAND, NY. More information available from US FCC via Universal Licensing System and Coast Guard Vessel Documentation Center.

Last reported at 2018-Apr-24 17:59 UTC. Time now 2018-Apr-25 00:49 UTC.
Position N 40°38' W 074°10'.

Length 23 m; draft 2.8 m.

Type: Tug. MMSI: 366870980.

Date/timePositionNaut miles runAvg speedWind from/ knotsBaromVisibWave heightAir tempDewpointWater temp
2018-Apr-24 17:59N 40°38' W 074°10'4 7.4
2018-Apr-24 17:30N 40°39' W 074°05'4 7.7
2018-Apr-24 17:00N 40°41' W 074°01'1 1.2
2018-Apr-24 16:30N 40°42' W 074°00'0 0.0
2018-Apr-24 16:00N 40°42' W 074°00'0 0.2
2018-Apr-24 15:30N 40°42' W 074°00'0 0.0
2018-Apr-24 15:00N 40°42' W 074°00'1 2.1
2018-Apr-24 14:30N 40°41' W 074°01'1 2.7
2018-Apr-24 14:00N 40°40' W 074°01'0 0.0
2018-Apr-24 13:30N 40°40' W 074°01'0 0.1
2018-Apr-24 13:00N 40°40' W 074°01'1 2.0
2018-Apr-24 12:30N 40°39' W 074°02'510.2
2018-Apr-24 12:00N 40°38' W 074°09'1 0.1
2018-Apr-23 19:46N 40°38' W 074°10'2 4.7
2018-Apr-23 19:25N 40°40' W 074°09'2 1.3
2018-Apr-23 17:58N 40°42' W 074°08'3 3.9
2018-Apr-23 17:12N 40°39' W 074°07'2 7.5
2018-Apr-23 16:59N 40°39' W 074°05'2 3.6
2018-Apr-23 16:30N 40°41' W 074°04'0 0.9
2018-Apr-23 16:00N 40°40' W 074°04'2 4.5
2018-Apr-23 15:30N 40°39' W 074°02'0 0.0
2018-Apr-23 14:55N 40°39' W 074°02'1 2.5
2018-Apr-23 14:30N 40°39' W 074°03'2 3.5
2018-Apr-23 14:01N 40°41' W 074°04'0 0.0
2018-Apr-23 13:30N 40°41' W 074°04'2 3.2
2018-Apr-23 12:56N 40°39' W 074°03'1 2.0
2018-Apr-23 12:28N 40°39' W 074°02'1 0.8
2018-Apr-23 11:50N 40°39' W 074°03'2 6.7
2018-Apr-23 11:30N 40°41' W 074°04'1 2.8
2018-Apr-23 11:00N 40°39' W 074°05'  
2018-Apr-20 18:43N 40°38' W 074°10'1 5.9
2018-Apr-20 18:30N 40°39' W 074°08'3 7.0
2018-Apr-20 18:00N 40°40' W 074°04'3 6.1
2018-Apr-20 17:30N 40°41' W 074°00'2 3.5
2018-Apr-20 17:00N 40°40' W 074°01'3 6.1
2018-Apr-20 16:30N 40°42' W 073°59'1 1.1
2018-Apr-20 16:00N 40°42' W 073°59'0 0.3
2018-Apr-20 15:30N 40°42' W 073°59'2 4.5
2018-Apr-20 15:00N 40°41' W 074°01'1 2.8
2018-Apr-20 14:30N 40°40' W 074°01'0 0.0
2018-Apr-20 14:00N 40°40' W 074°01'0 0.1
2018-Apr-20 13:30N 40°40' W 074°01'0 0.1
2018-Apr-20 13:00N 40°40' W 074°01'0 0.1
2018-Apr-20 12:30N 40°40' W 074°01'0 0.0
2018-Apr-20 12:00N 40°40' W 074°01'0 0.0
2018-Apr-20 11:30N 40°40' W 074°01'0 0.1
2018-Apr-20 11:00N 40°40' W 074°01'1 2.6
2018-Apr-20 10:30N 40°41' W 074°01'0 0.9
2018-Apr-20 10:00N 40°41' W 074°01'4 8.5
2018-Apr-20 09:30N 40°39' W 074°06'3 0.2
2018-Apr-19 19:20N 40°38' W 074°10'2 6.4
2018-Apr-19 19:00N 40°39' W 074°07'4 8.0
2018-Apr-19 18:30N 40°40' W 074°02'2 3.1
2018-Apr-19 18:01N 40°41' W 074°00'3 6.1
2018-Apr-19 17:31N 40°44' W 073°58'0 1.0
2018-Apr-19 17:01N 40°44' W 073°58'3 3.0
2018-Apr-19 16:08N 40°47' W 073°57'0 0.0
2018-Apr-19 15:57N 40°47' W 073°57'0 0.0
2018-Apr-19 12:14N 40°47' W 073°56'210.4
2018-Apr-19 12:00N 40°45' W 073°58'4 8.4
2018-Apr-19 11:30N 40°41' W 074°01'4 8.1
2018-Apr-19 11:00N 40°39' W 074°05'3 6.5
2018-Apr-19 10:31N 40°38' W 074°10'0 0.0
2018-Apr-18 23:00N 40°38' W 074°10'5 9.9
2018-Apr-18 22:30N 40°39' W 074°03'611.6
2018-Apr-18 22:00N 40°45' W 074°01'0 0.0
2018-Apr-18 21:30N 40°45' W 074°01'3 6.8
2018-Apr-18 21:00N 40°42' W 074°02'3 5.3
2018-Apr-18 20:30N 40°43' W 073°59'2 4.1
2018-Apr-18 20:00N 40°45' W 073°58'2 1.4
2018-Apr-18 18:35N 40°46' W 073°57'1 6.4
2018-Apr-18 18:30N 40°46' W 073°57'4 7.6
2018-Apr-18 18:00N 40°42' W 073°59'4 7.6
2018-Apr-18 17:30N 40°40' W 074°03'1 1.7
2018-Apr-18 17:00N 40°41' W 074°04'2 3.3
2018-Apr-18 16:30N 40°40' W 074°03'1 2.1
2018-Apr-18 16:00N 40°39' W 074°02'0 0.0
2018-Apr-18 15:27N 40°39' W 074°02'2 3.5
2018-Apr-18 15:00N 40°40' W 074°03'1 2.4
2018-Apr-18 14:30N 40°41' W 074°04'0 0.0
2018-Apr-18 14:00N 40°41' W 074°04'2 3.8
2018-Apr-18 13:30N 40°39' W 074°03'1 1.6
2018-Apr-18 13:00N 40°39' W 074°02'1 1.1
2018-Apr-18 12:30N 40°39' W 074°03'2 4.4
2018-Apr-18 12:00N 40°41' W 074°04'2 4.2
2018-Apr-18 11:29N 40°39' W 074°06'3 6.1
2018-Apr-18 11:00N 40°38' W 074°10'0 0.0
2018-Apr-17 19:44N 40°38' W 074°10'0 0.2
2018-Apr-17 19:29N 40°38' W 074°10'1 2.9
2018-Apr-17 19:00N 40°39' W 074°11'3 6.0
2018-Apr-17 18:30N 40°39' W 074°07'3 6.0
2018-Apr-17 18:00N 40°40' W 074°04'0 1.0
2018-Apr-17 17:30N 40°40' W 074°04'1 1.2
2018-Apr-17 17:00N 40°41' W 074°04'2 4.6
2018-Apr-17 16:31N 40°39' W 074°02'1 1.1
2018-Apr-17 16:00N 40°39' W 074°02'0 0.8
2018-Apr-17 15:30N 40°39' W 074°02'2 4.8
2018-Apr-17 15:00N 40°41' W 074°04'0 0.0
2018-Apr-17 14:30N 40°41' W 074°04'1 1.2
2018-Apr-17 14:00N 40°40' W 074°04'2 4.2
2018-Apr-17 13:30N 40°39' W 074°02'0 0.0
2018-Apr-17 13:00N 40°39' W 074°02'1 1.8
2018-Apr-17 12:30N 40°39' W 074°03'2 3.7
2018-Apr-17 12:01N 40°41' W 074°04'2 4.0
2018-Apr-17 11:29N 40°39' W 074°06'3 6.2
2018-Apr-17 11:00N 40°38' W 074°10'0 0.0
2018-Apr-16 18:38N 40°38' W 074°10'0 3.1
2018-Apr-16 18:30N 40°38' W 074°09'3 6.2
2018-Apr-16 18:00N 40°39' W 074°05'2 3.6
2018-Apr-16 17:30N 40°41' W 074°04'0 0.8
2018-Apr-16 17:00N 40°40' W 074°04'2 4.6
2018-Apr-16 16:30N 40°39' W 074°02'0 0.0
2018-Apr-16 16:00N 40°39' W 074°02'2 4.0
2018-Apr-16 15:30N 40°40' W 074°04'1 1.5
2018-Apr-16 15:00N 40°41' W 074°04'0 0.6
2018-Apr-16 14:30N 40°41' W 074°04'2 4.7
2018-Apr-16 14:00N 40°39' W 074°02'0 0.1
2018-Apr-16 13:30N 40°39' W 074°02'1 2.2
2018-Apr-16 13:00N 40°39' W 074°03'2 3.3
2018-Apr-16 12:30N 40°41' W 074°04'0 0.0
2018-Apr-16 12:00N 40°41' W 074°04'3 5.9
2018-Apr-16 11:30N 40°39' W 074°07'  
Track history (hours):
 
Tides and Currents Weather Stations Pressure Air Temp Water Temp Dewpoint Dewpoint Depression Visibility Wind Speed Wind Dir Waves Ship Positions

John P. Brown

Owner: THOMAS J. BROWN & SONS INC., STATEN ISLAND, NY. More information available from US FCC via Universal Licensing System and Coast Guard Vessel Documentation Center.

Last reported at 2018-Apr-24 17:59 UTC. Time now 2018-Apr-25 00:49 UTC.
Position N 40°38' W 074°10'.

Length 23 m; draft 2.8 m.

Type: Tug. MMSI: 366870980.

Date/timePositionNaut miles runAvg speedWind from/ knotsBaromVisibWave heightAir tempDewpointWater temp
2018-Apr-24 17:59N 40°38' W 074°10'4 7.4
2018-Apr-24 17:30N 40°39' W 074°05'4 7.7
2018-Apr-24 17:00N 40°41' W 074°01'1 1.2
2018-Apr-24 16:30N 40°42' W 074°00'0 0.0
2018-Apr-24 16:00N 40°42' W 074°00'0 0.2
2018-Apr-24 15:30N 40°42' W 074°00'0 0.0
2018-Apr-24 15:00N 40°42' W 074°00'1 2.1
2018-Apr-24 14:30N 40°41' W 074°01'1 2.7
2018-Apr-24 14:00N 40°40' W 074°01'0 0.0
2018-Apr-24 13:30N 40°40' W 074°01'0 0.1
2018-Apr-24 13:00N 40°40' W 074°01'1 2.0
2018-Apr-24 12:30N 40°39' W 074°02'510.2
2018-Apr-24 12:00N 40°38' W 074°09'1 0.1
2018-Apr-23 19:46N 40°38' W 074°10'2 4.7
2018-Apr-23 19:25N 40°40' W 074°09'2 1.3
2018-Apr-23 17:58N 40°42' W 074°08'3 3.9
2018-Apr-23 17:12N 40°39' W 074°07'2 7.5
2018-Apr-23 16:59N 40°39' W 074°05'2 3.6
2018-Apr-23 16:30N 40°41' W 074°04'0 0.9
2018-Apr-23 16:00N 40°40' W 074°04'2 4.5
2018-Apr-23 15:30N 40°39' W 074°02'0 0.0
2018-Apr-23 14:55N 40°39' W 074°02'1 2.5
2018-Apr-23 14:30N 40°39' W 074°03'2 3.5
2018-Apr-23 14:01N 40°41' W 074°04'0 0.0
2018-Apr-23 13:30N 40°41' W 074°04'2 3.2
2018-Apr-23 12:56N 40°39' W 074°03'1 2.0
2018-Apr-23 12:28N 40°39' W 074°02'1 0.8
2018-Apr-23 11:50N 40°39' W 074°03'2 6.7
2018-Apr-23 11:30N 40°41' W 074°04'1 2.8
2018-Apr-23 11:00N 40°39' W 074°05'  
2018-Apr-20 18:43N 40°38' W 074°10'1 5.9
2018-Apr-20 18:30N 40°39' W 074°08'3 7.0
2018-Apr-20 18:00N 40°40' W 074°04'3 6.1
2018-Apr-20 17:30N 40°41' W 074°00'2 3.5
2018-Apr-20 17:00N 40°40' W 074°01'3 6.1
2018-Apr-20 16:30N 40°42' W 073°59'1 1.1
2018-Apr-20 16:00N 40°42' W 073°59'0 0.3
2018-Apr-20 15:30N 40°42' W 073°59'2 4.5
2018-Apr-20 15:00N 40°41' W 074°01'1 2.8
2018-Apr-20 14:30N 40°40' W 074°01'0 0.0
2018-Apr-20 14:00N 40°40' W 074°01'0 0.1
2018-Apr-20 13:30N 40°40' W 074°01'0 0.1
2018-Apr-20 13:00N 40°40' W 074°01'0 0.1
2018-Apr-20 12:30N 40°40' W 074°01'0 0.0
2018-Apr-20 12:00N 40°40' W 074°01'0 0.0
2018-Apr-20 11:30N 40°40' W 074°01'0 0.1
2018-Apr-20 11:00N 40°40' W 074°01'1 2.6
2018-Apr-20 10:30N 40°41' W 074°01'0 0.9
2018-Apr-20 10:00N 40°41' W 074°01'4 8.5
2018-Apr-20 09:30N 40°39' W 074°06'3 0.2
2018-Apr-19 19:20N 40°38' W 074°10'2 6.4
2018-Apr-19 19:00N 40°39' W 074°07'4 8.0
2018-Apr-19 18:30N 40°40' W 074°02'2 3.1
2018-Apr-19 18:01N 40°41' W 074°00'3 6.1
2018-Apr-19 17:31N 40°44' W 073°58'0 1.0
2018-Apr-19 17:01N 40°44' W 073°58'3 3.0
2018-Apr-19 16:08N 40°47' W 073°57'0 0.0
2018-Apr-19 15:57N 40°47' W 073°57'0 0.0
2018-Apr-19 12:14N 40°47' W 073°56'210.4
2018-Apr-19 12:00N 40°45' W 073°58'4 8.4
2018-Apr-19 11:30N 40°41' W 074°01'4 8.1
2018-Apr-19 11:00N 40°39' W 074°05'3 6.5
2018-Apr-19 10:31N 40°38' W 074°10'0 0.0
2018-Apr-18 23:00N 40°38' W 074°10'5 9.9
2018-Apr-18 22:30N 40°39' W 074°03'611.6
2018-Apr-18 22:00N 40°45' W 074°01'0 0.0
2018-Apr-18 21:30N 40°45' W 074°01'3 6.8
2018-Apr-18 21:00N 40°42' W 074°02'3 5.3
2018-Apr-18 20:30N 40°43' W 073°59'2 4.1
2018-Apr-18 20:00N 40°45' W 073°58'2 1.4
2018-Apr-18 18:35N 40°46' W 073°57'1 6.4
2018-Apr-18 18:30N 40°46' W 073°57'4 7.6
2018-Apr-18 18:00N 40°42' W 073°59'4 7.6
2018-Apr-18 17:30N 40°40' W 074°03'1 1.7
2018-Apr-18 17:00N 40°41' W 074°04'2 3.3
2018-Apr-18 16:30N 40°40' W 074°03'1 2.1
2018-Apr-18 16:00N 40°39' W 074°02'0 0.0
2018-Apr-18 15:27N 40°39' W 074°02'2 3.5
2018-Apr-18 15:00N 40°40' W 074°03'1 2.4
2018-Apr-18 14:30N 40°41' W 074°04'0 0.0
2018-Apr-18 14:00N 40°41' W 074°04'2 3.8
2018-Apr-18 13:30N 40°39' W 074°03'1 1.6
2018-Apr-18 13:00N 40°39' W 074°02'1 1.1
2018-Apr-18 12:30N 40°39' W 074°03'2 4.4
2018-Apr-18 12:00N 40°41' W 074°04'2 4.2
2018-Apr-18 11:29N 40°39' W 074°06'3 6.1
2018-Apr-18 11:00N 40°38' W 074°10'0 0.0
2018-Apr-17 19:44N 40°38' W 074°10'0 0.2
2018-Apr-17 19:29N 40°38' W 074°10'1 2.9
2018-Apr-17 19:00N 40°39' W 074°11'3 6.0
2018-Apr-17 18:30N 40°39' W 074°07'3 6.0
2018-Apr-17 18:00N 40°40' W 074°04'0 1.0
2018-Apr-17 17:30N 40°40' W 074°04'1 1.2
2018-Apr-17 17:00N 40°41' W 074°04'2 4.6
2018-Apr-17 16:31N 40°39' W 074°02'1 1.1
2018-Apr-17 16:00N 40°39' W 074°02'0 0.8
2018-Apr-17 15:30N 40°39' W 074°02'2 4.8
2018-Apr-17 15:00N 40°41' W 074°04'0 0.0
2018-Apr-17 14:30N 40°41' W 074°04'1 1.2
2018-Apr-17 14:00N 40°40' W 074°04'2 4.2
2018-Apr-17 13:30N 40°39' W 074°02'0 0.0
2018-Apr-17 13:00N 40°39' W 074°02'1 1.8
2018-Apr-17 12:30N 40°39' W 074°03'2 3.7
2018-Apr-17 12:01N 40°41' W 074°04'2 4.0
2018-Apr-17 11:29N 40°39' W 074°06'3 6.2
2018-Apr-17 11:00N 40°38' W 074°10'0 0.0
2018-Apr-16 18:38N 40°38' W 074°10'0 3.1
2018-Apr-16 18:30N 40°38' W 074°09'3 6.2
2018-Apr-16 18:00N 40°39' W 074°05'2 3.6
2018-Apr-16 17:30N 40°41' W 074°04'0 0.8
2018-Apr-16 17:00N 40°40' W 074°04'2 4.6
2018-Apr-16 16:30N 40°39' W 074°02'0 0.0
2018-Apr-16 16:00N 40°39' W 074°02'2 4.0
2018-Apr-16 15:30N 40°40' W 074°04'1 1.5
2018-Apr-16 15:00N 40°41' W 074°04'0 0.6
2018-Apr-16 14:30N 40°41' W 074°04'2 4.7
2018-Apr-16 14:00N 40°39' W 074°02'0 0.1
2018-Apr-16 13:30N 40°39' W 074°02'1 2.2
2018-Apr-16 13:00N 40°39' W 074°03'2 3.3
2018-Apr-16 12:30N 40°41' W 074°04'0 0.0
2018-Apr-16 12:00N 40°41' W 074°04'3 5.9
2018-Apr-16 11:30N 40°39' W 074°07'  

Dump ship's entire track history